Portada
METAR-TAF:

METAR-TAF

Aeroports :

Clinton, Carolina del Nord, Estats Units d'Amèrica

latitud: 34-58-32N, longitud: 078-21-53W, altitud: 45 m

Observació

L'informe es va fer fa 21 minuts, a les 03:15 UTC
Vent 3 kt del Nord
Temperatura 17°C
Humitat 88%
Pressió 1015 hPa
Visibilitat: 16.1 km
Cel cobert a una alçada de 1600 ft

METAR: KCTZ 210315Z AUTO 35003KT 10SM OVC016 17/15 A2996 RMK AO2 T01720151

Hora: 23:36 (03:36 UTC)


TAF: manca

Observacions i pronòstics meteorològics de més de 4000 aeroports (METAR i TAF).

Les estacions disponibles són els punts grocs i vermells al mapa.

Posi el ratolí al punt desitjat per veure el nom de l'estació.

Feu clic per veure les observacions i els pronòstics meteorològics.

Per canviar el mapa: feu clic els botons verds amb una creu de color negre per apropar; al botó verd amb un guió per allunyar la imatge; o en les fletxes verdes per a mapes adjacents.


METAR-TAF: